createdAt,value
2023-04-02T00:00:10.753Z,600.31
2023-04-02T00:00:22.725Z,600.02
2023-04-02T00:00:33.714Z,599.95
2023-04-02T00:00:44.691Z,600.23
2023-04-02T00:00:55.789Z,600.39
2023-04-02T00:01:07.717Z,600.06
2023-04-02T00:01:18.721Z,600.32
2023-04-02T00:01:29.696Z,599.48
2023-04-02T00:01:40.799Z,600.09
2023-04-02T00:01:52.866Z,600.19
2023-04-02T00:02:04.811Z,599.50
2023-04-02T00:02:15.757Z,599.72
2023-04-02T00:02:27.839Z,599.54
2023-04-02T00:02:38.797Z,599.94
2023-04-02T00:02:49.726Z,599.90
2023-04-02T00:03:00.796Z,599.58
2023-04-02T00:03:11.788Z,599.66
2023-04-02T00:03:22.754Z,599.70
2023-04-02T00:03:33.767Z,599.37
2023-04-02T00:03:44.820Z,599.42
2023-04-02T00:03:56.864Z,599.42
2023-04-02T00:04:08.803Z,599.31
2023-04-02T00:04:19.715Z,599.32
2023-04-02T00:04:30.697Z,599.29
2023-04-02T00:04:41.772Z,599.35
2023-04-02T00:04:52.742Z,599.23
2023-04-02T00:05:03.731Z,599.14
2023-04-02T00:05:14.718Z,599.28
2023-04-02T00:05:25.718Z,599.08
2023-04-02T00:05:37.031Z,598.71
2023-04-02T00:05:47.784Z,599.06
2023-04-02T00:05:59.722Z,599.08
2023-04-02T00:06:10.707Z,599.50
2023-04-02T00:06:21.697Z,599.11
2023-04-02T00:06:33.135Z,598.99
2023-04-02T00:06:44.960Z,598.67
2023-04-02T00:06:55.736Z,599.10
2023-04-02T00:07:06.717Z,598.66
2023-04-02T00:07:17.702Z,599.04
2023-04-02T00:07:28.792Z,599.12
2023-04-02T00:07:40.748Z,598.99
2023-04-02T00:07:51.728Z,598.85
2023-04-02T00:08:02.710Z,598.82
2023-04-02T00:08:13.707Z,598.81
2023-04-02T00:08:24.774Z,598.46
2023-04-02T00:08:36.738Z,598.81
2023-04-02T00:08:47.720Z,598.80
2023-04-02T00:08:58.700Z,599.47
2023-04-02T00:09:09.788Z,599.29
2023-04-02T00:09:21.736Z,598.76
2023-04-02T00:09:32.735Z,599.10
2023-04-02T00:09:43.706Z,598.73
2023-04-02T00:09:54.699Z,598.60
2023-04-02T00:10:05.685Z,598.74
2023-04-02T00:10:16.780Z,598.74
2023-04-02T00:10:27.754Z,598.77
2023-04-02T00:10:38.730Z,598.77
2023-04-02T00:10:49.701Z,598.86
2023-04-02T00:11:00.788Z,598.71
2023-04-02T00:11:12.737Z,598.57
2023-04-02T00:11:23.743Z,598.79
2023-04-02T00:11:34.724Z,599.12
2023-04-02T00:11:45.711Z,599.61
2023-04-02T00:11:56.775Z,598.71
2023-04-02T00:12:08.741Z,599.04
2023-04-02T00:12:19.723Z,598.79
2023-04-02T00:12:30.722Z,598.61
2023-04-02T00:12:41.724Z,598.52
2023-04-02T00:12:52.714Z,598.65
2023-04-02T00:13:03.787Z,598.81
2023-04-02T00:13:15.751Z,599.00
2023-04-02T00:13:26.739Z,598.89
2023-04-02T00:13:37.755Z,598.64
2023-04-02T00:13:48.742Z,598.39
2023-04-02T00:13:59.756Z,598.49
2023-04-02T00:14:10.740Z,598.64
2023-04-02T00:14:21.730Z,598.35
2023-04-02T00:14:32.700Z,598.33
2023-04-02T00:14:43.781Z,598.26
2023-04-02T00:14:55.746Z,598.55
2023-04-02T00:15:06.727Z,598.55
2023-04-02T00:15:17.721Z,598.29
2023-04-02T00:15:28.698Z,598.42
2023-04-02T00:15:39.799Z,598.62
2023-04-02T00:15:51.777Z,598.57
2023-04-02T00:16:03.744Z,598.19
2023-04-02T00:16:14.783Z,598.74
2023-04-02T00:16:25.717Z,598.43
2023-04-02T00:16:36.853Z,598.38
2023-04-02T00:16:47.824Z,597.97
2023-04-02T00:16:59.760Z,598.48
2023-04-02T00:17:10.759Z,598.78
2023-04-02T00:17:21.737Z,598.28
2023-04-02T00:17:32.720Z,598.07
2023-04-02T00:17:43.718Z,598.47
2023-04-02T00:17:54.810Z,598.44
2023-04-02T00:18:06.739Z,598.72
2023-04-02T00:18:17.795Z,597.82
2023-04-02T00:18:29.766Z,598.31
2023-04-02T00:18:41.735Z,598.29
2023-04-02T00:18:52.709Z,598.65
2023-04-02T00:19:03.790Z,598.42
2023-04-02T00:19:15.724Z,598.18
2023-04-02T00:19:26.711Z,597.96
2023-04-02T00:19:37.787Z,598.09
2023-04-02T00:19:49.794Z,598.46
2023-04-02T00:20:01.760Z,598.47
2023-04-02T00:20:12.741Z,597.84
2023-04-02T00:20:23.721Z,597.61
2023-04-02T00:20:34.706Z,598.36
2023-04-02T00:20:45.780Z,598.09
2023-04-02T00:20:57.740Z,598.01
2023-04-02T00:21:08.723Z,597.84
2023-04-02T00:21:19.722Z,598.10
2023-04-02T00:21:30.713Z,597.94
2023-04-02T00:21:41.699Z,597.67
2023-04-02T00:21:52.782Z,598.05
2023-04-02T00:22:04.735Z,597.71
2023-04-02T00:22:15.727Z,598.32
2023-04-02T00:22:26.704Z,597.12
2023-04-02T00:22:37.791Z,598.28
2023-04-02T00:22:49.749Z,597.73
2023-04-02T00:23:00.735Z,597.42
2023-04-02T00:23:11.744Z,597.88
2023-04-02T00:23:22.744Z,597.54
2023-04-02T00:23:33.728Z,597.38
2023-04-02T00:23:44.720Z,597.49
2023-04-02T00:23:55.703Z,597.61
2023-04-02T00:24:06.791Z,597.88
2023-04-02T00:24:18.761Z,597.31
2023-04-02T00:24:31.208Z,597.31
2023-04-02T00:24:42.728Z,597.44
2023-04-02T00:24:53.729Z,597.21
2023-04-02T00:25:04.724Z,597.40
2023-04-02T00:25:15.705Z,597.15
2023-04-02T00:25:26.782Z,596.95
2023-04-02T00:25:38.734Z,597.00
2023-04-02T00:25:49.742Z,596.91
2023-04-02T00:26:00.742Z,597.12
2023-04-02T00:26:11.710Z,596.80
2023-04-02T00:26:22.699Z,596.95
2023-04-02T00:26:33.780Z,596.78
2023-04-02T00:26:45.755Z,596.87
2023-04-02T00:26:56.732Z,596.89
2023-04-02T00:27:07.708Z,596.22
2023-04-02T00:27:18.786Z,596.83
2023-04-02T00:27:30.731Z,596.49
2023-04-02T00:27:49.748Z,596.22
2023-04-02T00:27:52.742Z,596.77
2023-04-02T00:28:03.733Z,596.58
2023-04-02T00:28:14.711Z,596.88
2023-04-02T00:28:25.784Z,596.39
2023-04-02T00:28:37.728Z,596.40
2023-04-02T00:29:00.745Z,596.56
2023-04-02T00:29:11.718Z,596.13
2023-04-02T00:29:22.815Z,596.20
2023-04-02T00:29:34.752Z,595.98
2023-04-02T00:29:45.717Z,595.95
2023-04-02T00:29:56.811Z,596.04
2023-04-02T00:30:08.773Z,595.96
2023-04-02T00:30:20.721Z,596.21
2023-04-02T00:30:31.703Z,595.95
2023-04-02T00:30:42.790Z,595.85
2023-04-02T00:30:54.737Z,595.79
2023-04-02T00:31:05.728Z,595.83
2023-04-02T00:31:16.727Z,595.56
2023-04-02T00:31:27.724Z,595.80
2023-04-02T00:31:38.763Z,595.71
2023-04-02T00:31:49.783Z,595.85
2023-04-02T00:32:01.840Z,595.78
2023-04-02T00:32:12.761Z,595.95
2023-04-02T00:32:24.734Z,595.97
2023-04-02T00:32:35.744Z,595.88
2023-04-02T00:32:47.819Z,595.91
2023-04-02T00:32:58.756Z,595.62
2023-04-02T00:33:10.771Z,595.44
2023-04-02T00:33:21.762Z,595.52
2023-04-02T00:33:32.720Z,595.78
2023-04-02T00:33:43.717Z,595.56
2023-04-02T00:33:54.699Z,595.76
2023-04-02T00:34:05.791Z,595.88
2023-04-02T00:34:17.748Z,596.17
2023-04-02T00:34:28.774Z,595.85
2023-04-02T00:34:40.752Z,596.03
2023-04-02T00:34:51.734Z,595.79
2023-04-02T00:35:02.749Z,595.89
2023-04-02T00:35:13.742Z,595.59
2023-04-02T00:35:24.730Z,595.99
2023-04-02T00:35:37.033Z,595.46
2023-04-02T00:35:47.762Z,595.66
2023-04-02T00:35:58.758Z,595.66
2023-04-02T00:36:10.780Z,595.77
2023-04-02T00:36:22.798Z,595.52
2023-04-02T00:36:34.771Z,595.55
2023-04-02T00:36:45.728Z,595.66
2023-04-02T00:36:56.733Z,595.55
2023-04-02T00:37:07.726Z,595.90
2023-04-02T00:37:18.713Z,596.07
2023-04-02T00:37:29.721Z,595.55
2023-04-02T00:37:40.708Z,595.50
2023-04-02T00:37:51.715Z,595.38
2023-04-02T00:38:02.704Z,595.72
2023-04-02T00:38:13.713Z,595.53
2023-04-02T00:38:24.824Z,595.17
2023-04-02T00:38:36.756Z,595.03
2023-04-02T00:38:48.823Z,594.96
2023-04-02T00:38:59.728Z,595.28
2023-04-02T00:39:10.718Z,595.36
2023-04-02T00:39:21.707Z,595.51
2023-04-02T00:39:32.700Z,595.19
2023-04-02T00:39:43.771Z,595.21
2023-04-02T00:39:54.757Z,595.80
2023-04-02T00:40:05.715Z,595.52
2023-04-02T00:40:16.731Z,596.24
2023-04-02T00:40:27.720Z,595.70
2023-04-02T00:40:38.711Z,595.14
2023-04-02T00:40:49.792Z,595.67
2023-04-02T00:41:01.757Z,595.48
2023-04-02T00:41:12.746Z,594.86
2023-04-02T00:41:23.728Z,595.35
2023-04-02T00:41:34.704Z,595.41
2023-04-02T00:41:45.698Z,595.42
2023-04-02T00:41:56.778Z,595.23
2023-04-02T00:42:08.756Z,594.95
2023-04-02T00:42:19.733Z,595.02
2023-04-02T00:42:30.719Z,594.76
2023-04-02T00:42:41.702Z,595.37
2023-04-02T00:42:52.696Z,595.65
2023-04-02T00:43:03.774Z,594.57
2023-04-02T00:43:15.737Z,595.21
2023-04-02T00:43:26.709Z,595.29
2023-04-02T00:43:37.790Z,595.07
2023-04-02T00:43:49.752Z,595.08
2023-04-02T00:44:00.743Z,595.65
2023-04-02T00:44:11.733Z,595.12
2023-04-02T00:44:22.720Z,594.75
2023-04-02T00:44:33.705Z,594.89
2023-04-02T00:44:44.805Z,595.90
2023-04-02T00:44:56.740Z,594.95
2023-04-02T00:45:07.722Z,595.16
2023-04-02T00:45:18.704Z,595.11
2023-04-02T00:45:29.794Z,594.81
2023-04-02T00:45:41.758Z,594.70
2023-04-02T00:45:53.741Z,594.54
2023-04-02T00:46:04.790Z,594.86
2023-04-02T00:46:15.752Z,595.13
2023-04-02T00:46:26.869Z,594.63
2023-04-02T00:46:38.759Z,595.00
2023-04-02T00:46:49.917Z,595.15
2023-04-02T00:47:01.743Z,595.12
2023-04-02T00:47:12.735Z,594.75
2023-04-02T00:47:23.723Z,594.62
2023-04-02T00:47:34.735Z,594.87
2023-04-02T00:47:45.774Z,594.80
2023-04-02T00:47:57.795Z,594.09
2023-04-02T00:48:08.758Z,595.05
2023-04-02T00:48:19.737Z,595.24
2023-04-02T00:48:30.723Z,594.72
2023-04-02T00:48:41.783Z,594.21
2023-04-02T00:48:52.761Z,594.96
2023-04-02T00:49:03.745Z,594.65
2023-04-02T00:49:14.711Z,594.68
2023-04-02T00:49:25.711Z,594.44
2023-04-02T00:49:36.789Z,594.72
2023-04-02T00:49:48.740Z,594.37
2023-04-02T00:49:59.720Z,594.28
2023-04-02T00:50:10.797Z,594.95
2023-04-02T00:50:22.737Z,594.46
2023-04-02T00:50:33.717Z,594.09
2023-04-02T00:50:44.789Z,593.98
2023-04-02T00:50:56.742Z,594.04
2023-04-02T00:51:07.722Z,594.24
2023-04-02T00:51:18.703Z,594.09
2023-04-02T00:51:29.796Z,594.10
2023-04-02T00:51:41.741Z,594.44
2023-04-02T00:51:52.728Z,593.89
2023-04-02T00:52:03.748Z,593.90
2023-04-02T00:52:14.729Z,593.71
2023-04-02T00:52:25.723Z,593.79
2023-04-02T00:52:36.721Z,593.74
2023-04-02T00:52:47.701Z,594.03
2023-04-02T00:52:58.710Z,593.78
2023-04-02T00:53:09.776Z,594.36
2023-04-02T00:53:20.756Z,593.71
2023-04-02T00:53:31.730Z,593.58
2023-04-02T00:53:42.719Z,593.96
2023-04-02T00:53:53.744Z,593.94
2023-04-02T00:54:04.717Z,593.44
2023-04-02T00:54:15.802Z,593.77
2023-04-02T00:54:26.790Z,594.05
2023-04-02T00:54:38.724Z,594.03
2023-04-02T00:54:49.711Z,593.57
2023-04-02T00:55:00.783Z,593.45
2023-04-02T00:55:12.750Z,593.44
2023-04-02T00:55:23.719Z,593.52
2023-04-02T00:55:34.933Z,593.43
2023-04-02T00:55:45.714Z,593.08
2023-04-02T00:55:56.699Z,593.38
2023-04-02T00:56:07.784Z,593.51
2023-04-02T00:56:18.761Z,593.32
2023-04-02T00:56:29.763Z,593.31
2023-04-02T00:56:41.718Z,593.38
2023-04-02T00:56:52.747Z,593.12
2023-04-02T00:57:03.817Z,593.22
2023-04-02T00:57:15.791Z,593.46
2023-04-02T00:57:27.798Z,593.09
2023-04-02T00:57:39.764Z,593.40
2023-04-02T00:57:51.733Z,593.66
2023-04-02T00:58:02.721Z,593.28
2023-04-02T00:58:13.710Z,592.98
2023-04-02T00:58:24.701Z,593.17
2023-04-02T00:58:35.781Z,593.01
2023-04-02T00:58:47.774Z,593.19
2023-04-02T00:58:59.723Z,593.16
2023-04-02T00:59:10.710Z,592.93
2023-04-02T00:59:21.719Z,592.68
2023-04-02T00:59:32.798Z,593.40
2023-04-02T00:59:44.734Z,592.72
2023-04-02T00:59:55.709Z,593.58
2023-04-02T01:00:06.726Z,593.05
2023-04-02T01:00:17.733Z,592.83
2023-04-02T01:00:28.711Z,593.42
2023-04-02T01:00:39.711Z,593.23
2023-04-02T01:00:50.703Z,593.04
2023-04-02T01:01:01.825Z,592.84
2023-04-02T01:01:13.817Z,593.01
2023-04-02T01:01:24.828Z,593.12
2023-04-02T01:01:35.791Z,593.05
2023-04-02T01:01:47.821Z,592.97
2023-04-02T01:01:59.738Z,592.72
2023-04-02T01:02:11.752Z,593.19
2023-04-02T01:02:23.802Z,593.04
2023-04-02T01:02:35.894Z,593.01
2023-04-02T01:02:46.778Z,592.79
2023-04-02T01:02:57.818Z,593.02
2023-04-02T01:03:08.841Z,592.84
2023-04-02T01:03:20.773Z,592.84
2023-04-02T01:03:31.844Z,592.88
2023-04-02T01:03:42.951Z,592.79
2023-04-02T01:03:53.833Z,592.63
2023-04-02T01:04:04.729Z,592.78
2023-04-02T01:04:15.751Z,592.99
2023-04-02T01:04:27.735Z,593.10
2023-04-02T01:04:39.751Z,593.12
2023-04-02T01:04:51.750Z,593.06
2023-04-02T01:05:02.856Z,592.97
2023-04-02T01:05:14.754Z,592.71
2023-04-02T01:05:26.734Z,592.86
2023-04-02T01:05:38.752Z,592.69
2023-04-02T01:05:50.750Z,593.22
2023-04-02T01:06:01.746Z,593.31
2023-04-02T01:06:12.736Z,593.18
2023-04-02T01:06:23.718Z,593.02
2023-04-02T01:06:34.743Z,592.69
2023-04-02T01:06:45.710Z,593.11
2023-04-02T01:06:56.707Z,593.25
2023-04-02T01:07:07.790Z,592.94
2023-04-02T01:07:19.729Z,592.81
2023-04-02T01:07:30.729Z,592.87
2023-04-02T01:07:41.712Z,592.86
2023-04-02T01:07:52.801Z,592.87
2023-04-02T01:08:04.746Z,593.14
2023-04-02T01:08:15.738Z,592.96
2023-04-02T01:08:26.724Z,592.80
2023-04-02T01:08:37.722Z,593.24
2023-04-02T01:08:48.710Z,593.66
2023-04-02T01:08:59.787Z,593.65
2023-04-02T01:09:11.731Z,593.64
2023-04-02T01:09:22.730Z,593.61
2023-04-02T01:09:33.716Z,593.35
2023-04-02T01:09:44.685Z,593.30
2023-04-02T01:09:55.776Z,593.38
2023-04-02T01:10:07.744Z,593.02
2023-04-02T01:10:18.710Z,593.13
2023-04-02T01:10:29.711Z,593.18
2023-04-02T01:10:40.777Z,593.68
2023-04-02T01:10:52.740Z,593.50
2023-04-02T01:11:03.718Z,593.39
2023-04-02T01:11:14.716Z,593.45
2023-04-02T01:11:25.693Z,593.40
2023-04-02T01:11:36.776Z,593.38
2023-04-02T01:11:48.730Z,593.29
2023-04-02T01:11:59.704Z,593.38
2023-04-02T01:12:10.785Z,593.36
2023-04-02T01:12:22.736Z,593.24
2023-04-02T01:12:33.725Z,593.19
2023-04-02T01:12:44.731Z,593.90
2023-04-02T01:12:55.730Z,593.33
2023-04-02T01:13:06.723Z,593.46
2023-04-02T01:13:17.715Z,593.53
2023-04-02T01:13:28.704Z,593.17
2023-04-02T01:13:39.775Z,593.63
2023-04-02T01:13:50.746Z,594.04
2023-04-02T01:14:01.737Z,593.09
2023-04-02T01:14:12.709Z,593.47
2023-04-02T01:14:23.789Z,593.40
2023-04-02T01:14:35.761Z,593.44
2023-04-02T01:14:47.739Z,593.54
2023-04-02T01:14:58.730Z,593.95
2023-04-02T01:15:09.774Z,593.43
2023-04-02T01:15:20.780Z,593.66
2023-04-02T01:15:32.833Z,593.43
2023-04-02T01:15:43.759Z,593.37
2023-04-02T01:15:54.794Z,593.19
2023-04-02T01:16:06.799Z,593.24
2023-04-02T01:16:17.799Z,593.20
2023-04-02T01:16:29.796Z,592.83
2023-04-02T01:16:40.725Z,593.65
2023-04-02T01:16:51.721Z,593.90
2023-04-02T01:17:02.715Z,593.29
2023-04-02T01:17:13.710Z,592.85
2023-04-02T01:17:24.749Z,593.05
2023-04-02T01:17:35.786Z,592.47
2023-04-02T01:17:47.798Z,593.28
2023-04-02T01:17:58.748Z,592.75
2023-04-02T01:18:09.767Z,593.05
2023-04-02T01:18:20.769Z,592.81
2023-04-02T01:18:32.722Z,592.67
2023-04-02T01:18:43.786Z,592.92
2023-04-02T01:18:55.738Z,592.95
2023-04-02T01:19:06.735Z,592.85
2023-04-02T01:19:17.708Z,593.23
2023-04-02T01:19:28.788Z,592.94
2023-04-02T01:19:40.748Z,592.74
2023-04-02T01:19:51.727Z,593.09
2023-04-02T01:20:02.721Z,592.90
2023-04-02T01:20:13.714Z,592.61
2023-04-02T01:20:24.696Z,592.60
2023-04-02T01:20:35.775Z,593.18
2023-04-02T01:20:47.705Z,593.09
2023-04-02T01:20:58.698Z,592.64
2023-04-02T01:21:09.899Z,593.00
2023-04-02T01:21:21.739Z,592.75
2023-04-02T01:21:33.723Z,592.66
2023-04-02T01:21:44.706Z,592.43
2023-04-02T01:21:55.702Z,592.49
2023-04-02T01:22:06.781Z,592.54
2023-04-02T01:22:17.755Z,592.02
2023-04-02T01:22:28.736Z,592.04
2023-04-02T01:22:39.712Z,592.06
2023-04-02T01:22:50.696Z,592.34
2023-04-02T01:23:01.787Z,592.63
2023-04-02T01:23:13.729Z,592.43
2023-04-02T01:23:24.711Z,593.30
2023-04-02T01:23:35.694Z,592.52
2023-04-02T01:23:46.766Z,592.06
2023-04-02T01:23:58.744Z,592.59
2023-04-02T01:24:09.729Z,592.83
2023-04-02T01:24:20.736Z,592.32
2023-04-02T01:24:31.703Z,592.29
2023-04-02T01:24:42.786Z,592.22
2023-04-02T01:24:54.743Z,591.96
2023-04-02T01:25:05.724Z,592.46
2023-04-02T01:25:16.717Z,592.00
2023-04-02T01:25:27.688Z,591.83
2023-04-02T01:25:38.783Z,592.17
2023-04-02T01:25:50.728Z,592.09
2023-04-02T01:26:01.701Z,592.24
2023-04-02T01:26:12.699Z,592.25
2023-04-02T01:26:23.769Z,592.00
2023-04-02T01:26:35.725Z,591.78
2023-04-02T01:26:46.711Z,591.91
2023-04-02T01:26:57.728Z,591.93
2023-04-02T01:27:08.777Z,592.27
2023-04-02T01:27:19.750Z,591.91
2023-04-02T01:27:30.739Z,591.43
2023-04-02T01:27:41.737Z,592.55
2023-04-02T01:27:52.718Z,592.15
2023-04-02T01:28:03.701Z,592.27
2023-04-02T01:28:14.788Z,592.29
2023-04-02T01:28:26.730Z,591.98
2023-04-02T01:28:37.708Z,591.87
2023-04-02T01:28:48.691Z,591.83
2023-04-02T01:28:59.774Z,591.89
2023-04-02T01:29:11.726Z,591.83
2023-04-02T01:29:22.706Z,591.64
2023-04-02T01:29:33.724Z,591.79
2023-04-02T01:29:44.731Z,592.03
2023-04-02T01:29:55.723Z,591.82
2023-04-02T01:30:06.689Z,591.49
2023-04-02T01:30:17.723Z,591.31
2023-04-02T01:30:28.700Z,592.09
2023-04-02T01:30:39.786Z,591.76
2023-04-02T01:30:51.733Z,591.66
2023-04-02T01:31:02.804Z,591.11
2023-04-02T01:31:14.739Z,591.75
2023-04-02T01:31:25.809Z,591.44
2023-04-02T01:31:37.855Z,591.39
2023-04-02T01:31:48.844Z,591.18
2023-04-02T01:32:00.764Z,591.75
2023-04-02T01:32:11.754Z,591.35
2023-04-02T01:32:22.740Z,591.57
2023-04-02T01:32:33.764Z,591.07
2023-04-02T01:32:45.762Z,590.81
2023-04-02T01:32:57.750Z,591.48
2023-04-02T01:33:08.760Z,591.15
2023-04-02T01:33:20.727Z,591.09
2023-04-02T01:33:31.705Z,592.40
2023-04-02T01:33:42.794Z,591.49
2023-04-02T01:33:54.742Z,591.34
2023-04-02T01:34:05.724Z,591.15
2023-04-02T01:34:16.733Z,591.15
2023-04-02T01:34:27.718Z,591.15
2023-04-02T01:34:38.697Z,590.92
2023-04-02T01:34:49.777Z,591.28
2023-04-02T01:35:01.734Z,591.14
2023-04-02T01:35:12.725Z,590.93
2023-04-02T01:35:23.716Z,590.82
2023-04-02T01:35:34.942Z,591.01
2023-04-02T01:35:46.800Z,590.96
2023-04-02T01:35:58.767Z,590.88
2023-04-02T01:36:09.811Z,590.86
2023-04-02T01:36:21.798Z,591.06
2023-04-02T01:36:33.749Z,591.13
2023-04-02T01:36:44.741Z,590.54
2023-04-02T01:36:55.727Z,591.21
2023-04-02T01:37:06.707Z,591.12
2023-04-02T01:37:17.692Z,590.58
2023-04-02T01:37:28.780Z,590.64
2023-04-02T01:37:40.711Z,590.81
2023-04-02T01:37:51.791Z,590.48
2023-04-02T01:38:03.769Z,590.70
2023-04-02T01:38:15.746Z,590.17
2023-04-02T01:38:26.726Z,590.32
2023-04-02T01:38:37.712Z,591.20
2023-04-02T01:38:48.692Z,590.71
2023-04-02T01:38:59.781Z,589.47
2023-04-02T01:39:11.727Z,590.14
2023-04-02T01:39:22.712Z,590.23
2023-04-02T01:39:33.696Z,590.16
2023-04-02T01:39:44.785Z,590.06
2023-04-02T01:39:56.733Z,589.92
2023-04-02T01:40:07.707Z,590.04
2023-04-02T01:40:18.800Z,589.80
2023-04-02T01:40:30.729Z,590.47
2023-04-02T01:40:41.711Z,590.03
2023-04-02T01:40:52.689Z,590.07
2023-04-02T01:41:03.806Z,589.77
2023-04-02T01:41:15.762Z,589.63
2023-04-02T01:41:26.744Z,589.71
2023-04-02T01:41:37.726Z,589.77
2023-04-02T01:41:48.728Z,590.04
2023-04-02T01:41:59.716Z,590.08
2023-04-02T01:42:10.712Z,589.62
2023-04-02T01:42:21.708Z,589.67
2023-04-02T01:42:32.698Z,589.84
2023-04-02T01:42:43.700Z,589.43
2023-04-02T01:42:54.789Z,589.27
2023-04-02T01:43:05.766Z,589.53
2023-04-02T01:43:16.753Z,589.62
2023-04-02T01:43:27.738Z,589.34
2023-04-02T01:43:38.725Z,589.46
2023-04-02T01:43:49.728Z,589.65
2023-04-02T01:44:00.696Z,589.62
2023-04-02T01:44:11.702Z,589.28
2023-04-02T01:44:22.789Z,589.36
2023-04-02T01:44:34.730Z,589.49
2023-04-02T01:44:45.718Z,589.39
2023-04-02T01:44:56.705Z,588.90
2023-04-02T01:45:07.693Z,589.08
2023-04-02T01:45:18.785Z,589.14
2023-04-02T01:45:30.741Z,588.96
2023-04-02T01:45:41.742Z,588.80
2023-04-02T01:45:52.726Z,588.74
2023-04-02T01:46:03.764Z,589.22
2023-04-02T01:46:14.738Z,588.82
2023-04-02T01:46:25.830Z,589.12
2023-04-02T01:46:36.768Z,588.59
2023-04-02T01:46:47.758Z,588.62
2023-04-02T01:46:58.805Z,588.55
2023-04-02T01:47:10.736Z,588.67
2023-04-02T01:47:21.745Z,588.11
2023-04-02T01:47:33.822Z,589.01
2023-04-02T01:47:45.771Z,588.51
2023-04-02T01:47:56.797Z,588.48
2023-04-02T01:48:08.760Z,588.84
2023-04-02T01:48:20.713Z,588.37
2023-04-02T01:48:31.692Z,588.89
2023-04-02T01:48:42.771Z,588.63
2023-04-02T01:48:53.749Z,588.12
2023-04-02T01:49:04.726Z,588.52
2023-04-02T01:49:15.704Z,588.28
2023-04-02T01:49:26.782Z,588.34
2023-04-02T01:49:38.741Z,588.85
2023-04-02T01:49:50.731Z,587.73
2023-04-02T01:50:01.716Z,587.94
2023-04-02T01:50:12.792Z,588.02
2023-04-02T01:50:24.742Z,587.96
2023-04-02T01:50:35.735Z,588.20
2023-04-02T01:50:46.699Z,588.16
2023-04-02T01:50:57.775Z,587.97
2023-04-02T01:51:09.724Z,587.60
2023-04-02T01:51:20.714Z,587.70
2023-04-02T01:51:31.698Z,587.56
2023-04-02T01:51:42.776Z,587.87
2023-04-02T01:51:54.771Z,587.15
2023-04-02T01:52:06.725Z,587.40
2023-04-02T01:52:17.703Z,587.91
2023-04-02T01:52:28.696Z,587.81
2023-04-02T01:52:39.693Z,587.62
2023-04-02T01:52:50.765Z,587.46
2023-04-02T01:53:01.733Z,587.64
2023-04-02T01:53:12.732Z,587.37
2023-04-02T01:53:23.706Z,587.24
2023-04-02T01:53:34.702Z,587.08
2023-04-02T01:53:45.786Z,587.49
2023-04-02T01:53:57.723Z,586.81
2023-04-02T01:54:08.742Z,587.42
2023-04-02T01:54:19.717Z,586.80
2023-04-02T01:54:30.705Z,587.77
2023-04-02T01:54:41.687Z,587.37
2023-04-02T01:54:52.776Z,586.67
2023-04-02T01:55:04.728Z,587.50
2023-04-02T01:55:15.715Z,586.80
2023-04-02T01:55:26.694Z,587.17
2023-04-02T01:55:37.774Z,586.96
2023-04-02T01:55:49.719Z,587.24
2023-04-02T01:56:00.687Z,586.70
2023-04-02T01:56:11.687Z,586.90
2023-04-02T01:56:22.697Z,586.73
2023-04-02T01:56:33.765Z,586.98
2023-04-02T01:56:45.720Z,587.16
2023-04-02T01:56:56.775Z,586.71
2023-04-02T01:57:08.758Z,586.69
2023-04-02T01:57:19.789Z,586.42
2023-04-02T01:57:30.849Z,586.88
2023-04-02T01:57:41.725Z,586.48
2023-04-02T01:57:52.701Z,586.54
2023-04-02T01:58:03.706Z,586.54
2023-04-02T01:58:14.781Z,586.43
2023-04-02T01:58:26.723Z,586.80
2023-04-02T01:58:37.707Z,586.16
2023-04-02T01:58:48.770Z,586.47
2023-04-02T01:59:00.725Z,585.76
2023-04-02T01:59:11.749Z,586.23
2023-04-02T01:59:23.739Z,586.29
2023-04-02T01:59:34.723Z,586.20
2023-04-02T01:59:45.724Z,586.09
2023-04-02T01:59:56.719Z,586.48
2023-04-02T02:00:07.736Z,586.42
2023-04-02T02:00:18.714Z,585.78
2023-04-02T02:00:29.728Z,586.59
2023-04-02T02:00:40.870Z,585.89
2023-04-02T02:00:52.803Z,586.22
2023-04-02T02:01:04.808Z,586.33
2023-04-02T02:01:15.745Z,586.17
2023-04-02T02:01:26.751Z,586.02
2023-04-02T02:01:38.747Z,586.35
2023-04-02T02:01:49.741Z,586.06
2023-04-02T02:02:00.782Z,585.98
2023-04-02T02:02:12.769Z,586.26
2023-04-02T02:02:24.856Z,586.08
2023-04-02T02:02:36.816Z,585.23
2023-04-02T02:02:47.720Z,585.77
2023-04-02T02:02:58.764Z,585.89
2023-04-02T02:03:09.767Z,585.73
2023-04-02T02:03:21.824Z,585.92
2023-04-02T02:03:32.701Z,585.75
2023-04-02T02:03:43.740Z,585.70
2023-04-02T02:03:54.727Z,585.76
2023-04-02T02:04:05.703Z,585.87
2023-04-02T02:04:16.707Z,585.66
2023-04-02T02:04:27.784Z,585.64
2023-04-02T02:04:39.756Z,586.38
2023-04-02T02:04:50.746Z,585.38
2023-04-02T02:05:01.745Z,586.08
2023-04-02T02:05:12.734Z,585.72
2023-04-02T02:05:23.722Z,585.58
2023-04-02T02:05:34.907Z,585.59
2023-04-02T02:05:45.707Z,585.50
2023-04-02T02:05:56.786Z,585.49
2023-04-02T02:06:08.746Z,586.00
2023-04-02T02:06:19.745Z,585.91
2023-04-02T02:06:30.701Z,585.65
2023-04-02T02:06:41.711Z,586.07
2023-04-02T02:06:52.723Z,585.95
2023-04-02T02:07:03.725Z,585.75
2023-04-02T02:07:14.697Z,585.28
2023-04-02T02:07:25.695Z,585.68
2023-04-02T02:07:36.771Z,585.35
2023-04-02T02:07:47.745Z,585.46
2023-04-02T02:07:58.736Z,585.42
2023-04-02T02:08:09.716Z,585.50
2023-04-02T02:08:20.683Z,585.95
2023-04-02T02:08:31.762Z,585.82
2023-04-02T02:08:43.738Z,585.34
2023-04-02T02:08:54.725Z,585.08
2023-04-02T02:09:05.701Z,585.46
2023-04-02T02:09:16.699Z,585.69
2023-04-02T02:09:27.789Z,585.22
2023-04-02T02:09:39.740Z,585.90
2023-04-02T02:09:50.739Z,585.46
2023-04-02T02:10:01.727Z,585.72
2023-04-02T02:10:12.703Z,585.44
2023-04-02T02:10:23.776Z,584.94
2023-04-02T02:10:35.737Z,584.96
2023-04-02T02:10:46.718Z,585.16
2023-04-02T02:10:57.689Z,584.85
2023-04-02T02:11:08.777Z,585.44
2023-04-02T02:11:20.720Z,585.18
2023-04-02T02:11:31.718Z,585.17
2023-04-02T02:11:42.711Z,584.64
2023-04-02T02:11:53.691Z,585.39
2023-04-02T02:12:04.762Z,585.34
2023-04-02T02:12:15.754Z,585.29
2023-04-02T02:12:26.724Z,585.49
2023-04-02T02:12:37.703Z,585.19
2023-04-02T02:12:48.778Z,584.99
2023-04-02T02:13:00.717Z,584.91
2023-04-02T02:13:11.722Z,585.20
2023-04-02T02:13:22.701Z,584.86
2023-04-02T02:13:33.694Z,584.86
2023-04-02T02:13:44.695Z,585.18
2023-04-02T02:13:55.782Z,585.00
2023-04-02T02:14:07.727Z,584.35
2023-04-02T02:14:18.724Z,585.22
2023-04-02T02:14:29.712Z,585.02
2023-04-02T02:14:40.701Z,585.05
2023-04-02T02:14:51.698Z,585.52
2023-04-02T02:15:02.768Z,584.87
2023-04-02T02:15:13.749Z,584.71
2023-04-02T02:15:24.728Z,584.52
2023-04-02T02:15:35.960Z,584.42
2023-04-02T02:15:46.701Z,584.60
2023-04-02T02:15:57.805Z,584.41
2023-04-02T02:16:09.791Z,584.43
2023-04-02T02:16:21.846Z,584.26
2023-04-02T02:16:32.834Z,584.67
2023-04-02T02:16:44.818Z,584.08
2023-04-02T02:16:55.766Z,584.10
2023-04-02T02:17:07.721Z,584.43
2023-04-02T02:17:18.735Z,584.34
2023-04-02T02:17:29.735Z,584.67
2023-04-02T02:17:40.754Z,584.68
2023-04-02T02:17:52.771Z,584.11
2023-04-02T02:18:04.732Z,584.14
2023-04-02T02:18:15.721Z,583.70
2023-04-02T02:18:26.716Z,583.74
2023-04-02T02:18:37.711Z,583.13
2023-04-02T02:18:48.784Z,584.55
2023-04-02T02:19:00.729Z,584.25
2023-04-02T02:19:12.832Z,583.84
2023-04-02T02:19:23.719Z,583.90
2023-04-02T02:19:34.716Z,583.50
2023-04-02T02:19:45.708Z,583.61
2023-04-02T02:19:56.696Z,583.66
2023-04-02T02:20:07.778Z,583.95
2023-04-02T02:20:19.771Z,583.64
2023-04-02T02:20:31.716Z,583.56